createdAt,value
2019-04-09T00:00:25.300Z,6.41
2019-04-09T00:01:25.194Z,6.39
2019-04-09T00:02:26.019Z,6.39
2019-04-09T00:03:24.987Z,6.44
2019-04-09T00:04:25.333Z,6.38
2019-04-09T00:05:25.259Z,6.36
2019-04-09T00:06:25.305Z,6.41
2019-04-09T00:07:24.628Z,6.46
2019-04-09T00:08:24.459Z,6.39
2019-04-09T00:09:25.051Z,6.56
2019-04-09T00:10:24.251Z,6.54
2019-04-09T00:11:24.227Z,6.62
2019-04-09T00:12:24.038Z,6.49
2019-04-09T00:13:23.933Z,6.60
2019-04-09T00:14:24.145Z,6.46
2019-04-09T00:15:23.724Z,6.45
2019-04-09T00:16:23.618Z,6.41
2019-04-09T00:17:23.514Z,6.45
2019-04-09T00:18:23.408Z,6.45
2019-04-09T00:19:23.303Z,6.45
2019-04-09T00:20:23.199Z,6.41
2019-04-09T00:21:23.263Z,6.39
2019-04-09T00:22:22.987Z,6.42
2019-04-09T00:23:22.882Z,6.36
2019-04-09T00:24:23.084Z,6.33
2019-04-09T00:25:22.677Z,6.31
2019-04-09T00:26:22.610Z,6.35
2019-04-09T00:27:22.640Z,6.38
2019-04-09T00:28:22.355Z,6.33
2019-04-09T00:29:22.755Z,6.45
2019-04-09T00:30:22.727Z,6.45
2019-04-09T00:31:22.730Z,6.42
2019-04-09T00:32:21.935Z,6.42
2019-04-09T00:33:21.935Z,6.31
2019-04-09T00:34:21.855Z,6.39
2019-04-09T00:35:21.620Z,6.33
2019-04-09T00:36:21.746Z,6.31
2019-04-09T00:37:21.411Z,6.41
2019-04-09T00:38:21.303Z,6.38
2019-04-09T00:39:21.200Z,6.36
2019-04-09T00:40:21.786Z,6.30
2019-04-09T00:41:22.108Z,6.45
2019-04-09T00:42:20.884Z,6.48
2019-04-09T00:43:20.958Z,6.45
2019-04-09T00:44:20.673Z,6.28
2019-04-09T00:45:20.607Z,6.31
2019-04-09T00:46:20.515Z,6.41
2019-04-09T00:47:20.357Z,6.39
2019-04-09T00:48:20.251Z,6.31
2019-04-09T00:49:21.166Z,6.41
2019-04-09T00:50:21.082Z,6.48
2019-04-09T00:51:20.296Z,6.41
2019-04-09T00:52:20.245Z,6.41
2019-04-09T00:53:20.021Z,6.39
2019-04-09T00:54:19.619Z,6.38
2019-04-09T00:55:19.514Z,6.39
2019-04-09T00:56:20.396Z,6.38
2019-04-09T00:57:19.305Z,6.42
2019-04-09T00:58:19.199Z,6.39
2019-04-09T00:59:19.096Z,6.41
2019-04-09T01:00:18.993Z,6.41
2019-04-09T01:01:19.682Z,6.39
2019-04-09T01:02:18.779Z,6.42
2019-04-09T01:03:18.674Z,6.39
2019-04-09T01:04:19.584Z,6.45
2019-04-09T01:05:19.506Z,6.42
2019-04-09T01:06:18.849Z,6.48
2019-04-09T01:07:18.767Z,6.45
2019-04-09T01:08:18.873Z,6.42
2019-04-09T01:09:18.753Z,6.42
2019-04-09T01:10:18.592Z,6.39
2019-04-09T01:11:17.832Z,6.41
2019-04-09T01:12:18.491Z,6.38
2019-04-09T01:13:18.171Z,6.27
2019-04-09T01:14:17.654Z,6.30
2019-04-09T01:15:18.284Z,6.41
2019-04-09T01:16:17.915Z,6.45
2019-04-09T01:17:17.200Z,6.49
2019-04-09T01:18:17.095Z,6.48
2019-04-09T01:19:19.763Z,6.44
2019-04-09T01:20:17.600Z,6.41
2019-04-09T01:21:16.781Z,6.39
2019-04-09T01:22:17.795Z,6.42
2019-04-09T01:23:16.570Z,6.42
2019-04-09T01:24:27.835Z,6.44
2019-04-09T01:25:16.751Z,6.38
2019-04-09T01:26:16.272Z,6.52
2019-04-09T01:27:19.020Z,6.52
2019-04-09T01:28:16.075Z,6.46
2019-04-09T01:29:15.983Z,6.45
2019-04-09T01:30:15.934Z,6.44
2019-04-09T01:31:15.729Z,6.49
2019-04-09T01:32:15.626Z,6.48
2019-04-09T01:33:16.221Z,6.44
2019-04-09T01:34:16.069Z,6.41
2019-04-09T01:35:16.208Z,6.41
2019-04-09T01:36:15.203Z,6.45
2019-04-09T01:37:15.099Z,6.44
2019-04-09T01:38:14.995Z,6.41
2019-04-09T01:39:15.785Z,6.36
2019-04-09T01:40:15.069Z,6.31
2019-04-09T01:41:15.040Z,6.24
2019-04-09T01:42:14.575Z,6.35
2019-04-09T01:43:14.512Z,6.36
2019-04-09T01:44:14.405Z,6.30
2019-04-09T01:45:14.258Z,6.31
2019-04-09T01:46:14.629Z,6.27
2019-04-09T01:47:14.049Z,6.31
2019-04-09T01:48:13.943Z,6.19
2019-04-09T01:49:13.839Z,6.26
2019-04-09T01:50:13.734Z,6.16
2019-04-09T01:51:14.610Z,6.22
2019-04-09T01:52:13.526Z,6.14
2019-04-09T01:53:13.836Z,6.08
2019-04-09T01:54:13.315Z,6.07
2019-04-09T01:55:13.210Z,6.08
2019-04-09T01:56:14.138Z,6.02
2019-04-09T01:57:21.940Z,5.98
2019-04-09T01:58:12.906Z,6.05
2019-04-09T01:59:13.850Z,6.01
2019-04-09T02:00:13.789Z,5.93
2019-04-09T02:01:13.156Z,5.97
2019-04-09T02:02:13.209Z,5.91
2019-04-09T02:03:13.022Z,5.94
2019-04-09T02:04:12.367Z,5.97
2019-04-09T02:05:13.176Z,5.93
2019-04-09T02:06:12.338Z,5.90
2019-04-09T02:07:12.282Z,5.84
2019-04-09T02:08:11.841Z,5.82
2019-04-09T02:09:11.737Z,5.86
2019-04-09T02:10:11.633Z,5.75
2019-04-09T02:11:11.530Z,5.82
2019-04-09T02:12:12.412Z,5.73
2019-04-09T02:13:11.695Z,5.80
2019-04-09T02:14:11.487Z,5.75
2019-04-09T02:15:11.106Z,5.69
2019-04-09T02:16:11.000Z,5.71
2019-04-09T02:17:10.895Z,5.66
2019-04-09T02:18:11.496Z,5.69
2019-04-09T02:19:11.353Z,5.72
2019-04-09T02:20:10.579Z,5.66
2019-04-09T02:21:11.283Z,5.71
2019-04-09T02:22:10.396Z,5.73
2019-04-09T02:23:10.262Z,5.69
2019-04-09T02:24:12.267Z,5.75
2019-04-09T02:25:10.051Z,5.80
2019-04-09T02:26:10.433Z,5.79
2019-04-09T02:27:10.333Z,5.82
2019-04-09T02:28:09.735Z,5.86
2019-04-09T02:29:09.629Z,5.91
2019-04-09T02:30:09.534Z,5.94
2019-04-09T02:31:10.166Z,5.90
2019-04-09T02:32:09.649Z,5.91
2019-04-09T02:33:09.334Z,5.91
2019-04-09T02:34:10.604Z,5.90
2019-04-09T02:35:10.626Z,5.90
2019-04-09T02:36:09.994Z,5.93
2019-04-09T02:37:09.461Z,5.98
2019-04-09T02:38:10.215Z,5.89
2019-04-09T02:39:08.575Z,5.97
2019-04-09T02:40:09.350Z,5.91
2019-04-09T02:41:09.152Z,5.94
2019-04-09T02:42:08.260Z,5.91
2019-04-09T02:43:08.234Z,5.90
2019-04-09T02:44:08.381Z,5.94
2019-04-09T02:45:08.419Z,5.89
2019-04-09T02:46:07.836Z,5.87
2019-04-09T02:47:07.747Z,5.94
2019-04-09T02:48:07.625Z,5.90
2019-04-09T02:49:07.522Z,5.94
2019-04-09T02:50:08.850Z,5.90
2019-04-09T02:51:07.399Z,5.84
2019-04-09T02:52:07.205Z,5.89
2019-04-09T02:53:07.101Z,5.82
2019-04-09T02:54:08.065Z,5.79
2019-04-09T02:55:06.890Z,5.82
2019-04-09T02:56:07.739Z,5.87
2019-04-09T02:57:07.607Z,5.79
2019-04-09T02:58:06.629Z,5.90
2019-04-09T02:59:06.469Z,5.91
2019-04-09T03:00:07.416Z,5.98
2019-04-09T03:01:06.648Z,5.87
2019-04-09T03:02:06.156Z,6.01
2019-04-09T03:03:06.529Z,6.04
2019-04-09T03:04:06.490Z,5.99
2019-04-09T03:05:06.347Z,6.04
2019-04-09T03:06:05.732Z,6.05
2019-04-09T03:07:05.626Z,6.02
2019-04-09T03:08:06.437Z,5.98
2019-04-09T03:09:06.161Z,6.08
2019-04-09T03:10:05.320Z,5.99
2019-04-09T03:11:06.127Z,6.01
2019-04-09T03:12:05.099Z,5.90
2019-04-09T03:13:04.989Z,6.02
2019-04-09T03:14:05.844Z,5.97
2019-04-09T03:15:05.223Z,5.97
2019-04-09T03:16:04.831Z,5.91
2019-04-09T03:17:04.570Z,5.89
2019-04-09T03:18:04.693Z,5.90
2019-04-09T03:19:04.586Z,5.84
2019-04-09T03:20:04.322Z,5.93
2019-04-09T03:21:04.147Z,5.86
2019-04-09T03:22:04.600Z,5.84
2019-04-09T03:23:04.633Z,5.90
2019-04-09T03:24:03.834Z,5.93
2019-04-09T03:25:03.729Z,5.87
2019-04-09T03:26:03.620Z,6.02
2019-04-09T03:27:03.519Z,6.01
2019-04-09T03:28:06.748Z,5.91
2019-04-09T03:29:03.308Z,5.89
2019-04-09T03:30:03.626Z,6.01
2019-04-09T03:31:04.157Z,5.98
2019-04-09T03:32:03.696Z,6.01
2019-04-09T03:33:04.743Z,5.99
2019-04-09T03:34:03.986Z,5.97
2019-04-09T03:35:02.673Z,5.93
2019-04-09T03:36:02.746Z,5.93
2019-04-09T03:37:02.462Z,6.01
2019-04-09T03:38:02.377Z,5.86
2019-04-09T03:39:02.954Z,5.97
2019-04-09T03:40:02.883Z,5.93
2019-04-09T03:41:02.509Z,5.97
2019-04-09T03:42:01.938Z,5.91
2019-04-09T03:43:01.830Z,5.82
2019-04-09T03:44:02.442Z,5.71
2019-04-09T03:45:02.492Z,5.68
2019-04-09T03:46:01.515Z,5.64
2019-04-09T03:47:01.408Z,5.53
2019-04-09T03:48:01.306Z,5.50
2019-04-09T03:49:01.226Z,5.47
2019-04-09T03:50:01.091Z,5.50
2019-04-09T03:51:00.987Z,5.50
2019-04-09T03:52:00.880Z,5.50
2019-04-09T03:53:00.775Z,5.36
2019-04-09T03:54:00.670Z,5.41
2019-04-09T03:55:00.565Z,5.47
2019-04-09T03:56:02.409Z,5.41
2019-04-09T03:57:01.279Z,5.41
2019-04-09T03:58:11.988Z,5.30
2019-04-09T03:59:00.288Z,5.28
2019-04-09T04:00:00.386Z,5.26
2019-04-09T04:00:59.928Z,5.33
2019-04-09T04:01:59.825Z,5.43
2019-04-09T04:02:59.718Z,5.29
2019-04-09T04:03:59.614Z,5.44
2019-04-09T04:04:59.507Z,5.39
2019-04-09T04:05:59.400Z,5.41
2019-04-09T04:06:59.300Z,5.36
2019-04-09T04:08:00.307Z,5.44
2019-04-09T04:08:59.086Z,5.51
2019-04-09T04:09:59.593Z,5.47
2019-04-09T04:10:58.874Z,5.53
2019-04-09T04:11:58.769Z,5.51
2019-04-09T04:12:58.663Z,5.56
2019-04-09T04:13:58.556Z,5.47
2019-04-09T04:14:59.228Z,5.48
2019-04-09T04:15:59.158Z,5.44
2019-04-09T04:16:58.258Z,5.61
2019-04-09T04:17:58.143Z,5.54
2019-04-09T04:18:58.792Z,5.53
2019-04-09T04:19:58.118Z,5.48
2019-04-09T04:20:58.186Z,5.54
2019-04-09T04:21:57.726Z,5.41
2019-04-09T04:22:58.192Z,5.36
2019-04-09T04:23:58.018Z,5.44
2019-04-09T04:24:57.396Z,5.43
2019-04-09T04:25:57.559Z,5.46
2019-04-09T04:26:57.182Z,5.44
2019-04-09T04:27:57.077Z,5.41
2019-04-09T04:28:57.411Z,5.48
2019-04-09T04:29:57.788Z,5.46
2019-04-09T04:30:56.962Z,5.38
2019-04-09T04:31:56.654Z,5.43
2019-04-09T04:32:56.549Z,5.44
2019-04-09T04:33:56.441Z,5.51
2019-04-09T04:34:56.570Z,5.46
2019-04-09T04:35:56.318Z,5.53
2019-04-09T04:36:56.125Z,5.54
2019-04-09T04:37:56.082Z,5.51
2019-04-09T04:38:56.022Z,5.48
2019-04-09T04:39:55.807Z,5.57
2019-04-09T04:40:55.920Z,5.61
2019-04-09T04:41:55.599Z,5.64
2019-04-09T04:42:56.423Z,5.68
2019-04-09T04:43:55.451Z,5.66
2019-04-09T04:44:55.533Z,5.61
2019-04-09T04:45:55.177Z,5.68
2019-04-09T04:46:55.073Z,5.72
2019-04-09T04:47:55.016Z,5.61
2019-04-09T04:48:54.865Z,5.73
2019-04-09T04:49:54.754Z,5.61
2019-04-09T04:50:55.652Z,5.68
2019-04-09T04:51:56.979Z,5.62
2019-04-09T04:52:54.489Z,5.59
2019-04-09T04:53:55.196Z,5.65
2019-04-09T04:54:54.538Z,5.76
2019-04-09T04:55:54.180Z,5.69
2019-04-09T04:56:54.340Z,5.62
2019-04-09T04:57:53.912Z,5.68
2019-04-09T04:58:53.930Z,5.62
2019-04-09T04:59:53.699Z,5.54
2019-04-09T05:00:53.595Z,5.68
2019-04-09T05:01:53.489Z,5.59
2019-04-09T05:02:53.384Z,5.64
2019-04-09T05:03:53.277Z,5.73
2019-04-09T05:04:54.352Z,5.71
2019-04-09T05:05:53.407Z,5.79
2019-04-09T05:06:53.057Z,5.72
2019-04-09T05:07:53.172Z,5.66
2019-04-09T05:08:52.749Z,5.73
2019-04-09T05:09:52.646Z,5.71
2019-04-09T05:10:52.851Z,5.69
2019-04-09T05:11:52.810Z,5.66
2019-04-09T05:12:53.225Z,5.62
2019-04-09T05:13:52.665Z,5.62
2019-04-09T05:14:52.927Z,5.64
2019-04-09T05:15:52.127Z,5.64
2019-04-09T05:16:53.483Z,5.59
2019-04-09T05:17:51.800Z,5.59
2019-04-09T05:18:51.696Z,5.61
2019-04-09T05:19:51.593Z,5.64
2019-04-09T05:20:51.484Z,5.62
2019-04-09T05:21:52.457Z,5.64
2019-04-09T05:22:51.276Z,5.64
2019-04-09T05:23:51.961Z,5.71
2019-04-09T05:24:51.093Z,5.69
2019-04-09T05:25:51.544Z,5.69
2019-04-09T05:26:50.853Z,5.64
2019-04-09T05:27:50.747Z,5.62
2019-04-09T05:28:57.052Z,5.69
2019-04-09T05:29:50.538Z,5.69
2019-04-09T05:30:50.523Z,5.72
2019-04-09T05:31:51.327Z,5.94
2019-04-09T05:32:50.249Z,6.02
2019-04-09T05:33:51.114Z,6.17
2019-04-09T05:34:50.517Z,6.31
2019-04-09T05:35:49.905Z,6.41
2019-04-09T05:36:49.960Z,6.63
2019-04-09T05:37:49.695Z,6.88
2019-04-09T05:38:49.589Z,7.11
2019-04-09T05:39:50.511Z,6.97
2019-04-09T05:40:49.637Z,6.97
2019-04-09T05:41:50.131Z,6.75
2019-04-09T05:42:49.769Z,6.82
2019-04-09T05:43:49.255Z,6.63
2019-04-09T05:44:49.502Z,6.57
2019-04-09T05:45:48.876Z,6.51
2019-04-09T05:46:48.753Z,6.60
2019-04-09T05:47:48.703Z,6.66
2019-04-09T05:48:48.719Z,6.69
2019-04-09T05:49:48.624Z,6.66
2019-04-09T05:50:48.336Z,6.67
2019-04-09T05:51:49.236Z,6.64
2019-04-09T05:52:49.109Z,6.64
2019-04-09T05:53:48.994Z,6.66
2019-04-09T05:54:47.922Z,6.62
2019-04-09T05:55:47.823Z,6.63
2019-04-09T05:56:47.719Z,6.66
2019-04-09T05:57:48.660Z,6.66
2019-04-09T05:58:59.087Z,6.49
2019-04-09T05:59:47.806Z,6.51
2019-04-09T06:00:48.791Z,6.52
2019-04-09T06:01:47.191Z,6.64
2019-04-09T06:02:47.089Z,6.74
2019-04-09T06:03:47.336Z,6.85
2019-04-09T06:04:47.857Z,6.95
2019-04-09T06:05:46.932Z,7.03
2019-04-09T06:06:46.671Z,7.13
2019-04-09T06:07:46.569Z,6.92
2019-04-09T06:08:46.523Z,7.00
2019-04-09T06:09:47.162Z,6.82
2019-04-09T06:10:47.250Z,6.81
2019-04-09T06:11:46.183Z,7.07
2019-04-09T06:12:47.046Z,7.21
2019-04-09T06:13:46.145Z,7.56
2019-04-09T06:14:45.840Z,7.73
2019-04-09T06:15:45.737Z,7.73
2019-04-09T06:16:45.639Z,7.98
2019-04-09T06:17:45.703Z,7.98
2019-04-09T06:18:46.164Z,7.95
2019-04-09T06:19:46.115Z,7.63
2019-04-09T06:20:45.219Z,7.67
2019-04-09T06:21:45.422Z,7.76
2019-04-09T06:22:45.560Z,7.77
2019-04-09T06:23:45.882Z,7.72
2019-04-09T06:24:45.182Z,7.63
2019-04-09T06:25:44.705Z,7.88
2019-04-09T06:26:44.601Z,8.08
2019-04-09T06:27:45.431Z,8.28
2019-04-09T06:28:44.396Z,8.38
2019-04-09T06:29:44.295Z,8.10
2019-04-09T06:30:44.190Z,8.27
2019-04-09T06:31:44.171Z,8.08
2019-04-09T06:32:43.985Z,7.85
2019-04-09T06:33:44.156Z,7.98
2019-04-09T06:34:44.620Z,8.24
2019-04-09T06:35:44.260Z,8.05
2019-04-09T06:36:43.821Z,8.34
2019-04-09T06:37:43.819Z,8.71
2019-04-09T06:38:43.838Z,8.94
2019-04-09T06:39:43.266Z,8.85
2019-04-09T06:40:43.166Z,8.99
2019-04-09T06:41:43.650Z,8.76
2019-04-09T06:42:42.963Z,8.58
2019-04-09T06:43:42.859Z,8.64
2019-04-09T06:44:43.363Z,8.60
2019-04-09T06:45:44.797Z,8.84
2019-04-09T06:46:42.556Z,8.92
2019-04-09T06:47:42.561Z,8.91
2019-04-09T06:48:42.349Z,8.99
2019-04-09T06:49:42.247Z,9.32
2019-04-09T06:50:42.985Z,9.13
2019-04-09T06:51:48.598Z,8.76
2019-04-09T06:52:42.310Z,8.78
2019-04-09T06:53:41.839Z,8.92
2019-04-09T06:54:53.059Z,9.19
2019-04-09T06:55:41.634Z,9.34
2019-04-09T06:56:41.965Z,9.26
2019-04-09T06:57:41.487Z,9.54
2019-04-09T06:58:41.333Z,9.44
2019-04-09T06:59:42.107Z,9.37
2019-04-09T07:00:42.259Z,9.72
2019-04-09T07:01:41.334Z,9.76
2019-04-09T07:02:40.928Z,9.95
2019-04-09T07:03:41.246Z,10.02
2019-04-09T07:04:40.725Z,10.19
2019-04-09T07:05:40.775Z,10.07
2019-04-09T07:06:40.524Z,9.94
2019-04-09T07:07:40.674Z,10.15
2019-04-09T07:08:40.319Z,9.50
2019-04-09T07:09:41.169Z,9.02
2019-04-09T07:10:40.426Z,9.68
2019-04-09T07:11:41.215Z,10.07
2019-04-09T07:12:40.747Z,10.38
2019-04-09T07:13:39.967Z,10.56
2019-04-09T07:14:40.360Z,10.64
2019-04-09T07:15:39.688Z,10.74
2019-04-09T07:16:39.520Z,10.49
2019-04-09T07:17:40.527Z,10.07
2019-04-09T07:18:39.761Z,9.79
2019-04-09T07:19:39.216Z,9.62
2019-04-09T07:20:39.122Z,9.36
2019-04-09T07:21:39.017Z,9.18
2019-04-09T07:22:40.282Z,8.92
2019-04-09T07:23:39.713Z,8.64
2019-04-09T07:24:38.714Z,8.36
2019-04-09T07:25:38.612Z,8.31
2019-04-09T07:26:38.512Z,8.20
2019-04-09T07:27:39.032Z,8.12
2019-04-09T07:28:38.309Z,7.85
2019-04-09T07:29:50.513Z,7.83
2019-04-09T07:30:39.841Z,7.85
2019-04-09T07:31:39.429Z,7.77
2019-04-09T07:32:42.415Z,7.85
2019-04-09T07:33:41.578Z,8.05
2019-04-09T07:34:38.739Z,8.15
2019-04-09T07:35:37.950Z,8.20
2019-04-09T07:36:38.124Z,8.26
2019-04-09T07:37:38.928Z,8.12
2019-04-09T07:38:37.294Z,8.19
2019-04-09T07:39:37.744Z,7.98
2019-04-09T07:40:39.028Z,7.97
2019-04-09T07:41:39.360Z,7.85
2019-04-09T07:42:36.886Z,8.05
2019-04-09T07:43:37.363Z,7.95
2019-04-09T07:44:37.345Z,8.03
2019-04-09T07:45:40.862Z,7.97
2019-04-09T07:46:36.478Z,8.12
2019-04-09T07:47:36.727Z,7.94
2019-04-09T07:48:36.580Z,8.01
2019-04-09T07:49:38.364Z,8.16
2019-04-09T07:50:36.068Z,8.26
2019-04-09T07:51:36.821Z,8.08
2019-04-09T07:52:36.609Z,8.10
2019-04-09T07:53:36.007Z,8.06
2019-04-09T07:54:41.533Z,8.24
2019-04-09T07:55:35.555Z,8.37
2019-04-09T07:56:35.451Z,8.18
2019-04-09T07:57:39.322Z,8.19
2019-04-09T07:58:35.242Z,8.31
2019-04-09T07:59:36.513Z,8.18
2019-04-09T08:00:35.062Z,8.15
2019-04-09T08:01:35.960Z,8.31
2019-04-09T08:02:35.464Z,8.34
2019-04-09T08:03:34.730Z,8.16
2019-04-09T08:04:39.741Z,8.28
2019-04-09T08:05:35.476Z,8.20
2019-04-09T08:06:35.310Z,8.27
2019-04-09T08:07:34.688Z,8.30
2019-04-09T08:08:34.216Z,8.61
2019-04-09T08:09:34.115Z,8.38
2019-04-09T08:10:34.655Z,8.24
2019-04-09T08:11:34.064Z,8.18
2019-04-09T08:12:33.807Z,8.09
2019-04-09T08:13:33.800Z,8.19
2019-04-09T08:14:33.601Z,8.34
2019-04-09T08:15:37.457Z,8.56
2019-04-09T08:16:34.108Z,8.53
2019-04-09T08:17:40.737Z,8.56
2019-04-09T08:18:33.499Z,8.70
2019-04-09T08:19:33.602Z,8.78
2019-04-09T08:20:33.895Z,8.82
2019-04-09T08:21:36.100Z,8.70
2019-04-09T08:22:32.782Z,8.71
2019-04-09T08:23:33.304Z,8.66
2019-04-09T08:24:32.568Z,8.63
2019-04-09T08:25:32.466Z,8.76
2019-04-09T08:26:36.184Z,8.85
2019-04-09T08:27:32.262Z,9.03
2019-04-09T08:28:32.159Z,8.97
2019-04-09T08:29:32.055Z,9.00
2019-04-09T08:30:38.681Z,8.94
2019-04-09T08:31:32.062Z,8.84
2019-04-09T08:32:31.744Z,8.91
2019-04-09T08:33:32.607Z,8.81
2019-04-09T08:34:34.168Z,8.55
2019-04-09T08:35:34.683Z,8.74
2019-04-09T08:36:31.334Z,8.87
2019-04-09T08:37:31.231Z,8.89
2019-04-09T08:38:31.272Z,8.95
2019-04-09T08:39:35.242Z,8.92
2019-04-09T08:40:31.609Z,8.78
2019-04-09T08:41:30.896Z,8.74
2019-04-09T08:42:30.953Z,8.64
2019-04-09T08:43:33.022Z,8.73
2019-04-09T08:44:31.047Z,8.82
2019-04-09T08:45:30.535Z,8.70
2019-04-09T08:46:31.040Z,8.85
2019-04-09T08:47:34.555Z,8.82
2019-04-09T08:48:30.412Z,8.81
2019-04-09T08:49:30.509Z,8.92
2019-04-09T08:50:31.737Z,8.84
2019-04-09T08:51:34.323Z,8.84
2019-04-09T08:52:30.843Z,8.99
2019-04-09T08:53:29.838Z,8.92
2019-04-09T08:54:30.381Z,9.13
2019-04-09T08:55:31.705Z,9.11
2019-04-09T08:56:29.281Z,9.19
2019-04-09T08:57:29.471Z,9.19
2019-04-09T08:58:29.151Z,9.14
2019-04-09T08:59:31.089Z,9.10
2019-04-09T09:00:59.726Z,9.08
2019-04-09T09:01:52.772Z,9.06
2019-04-09T09:02:32.580Z,9.03
2019-04-09T09:03:29.839Z,9.11
2019-04-09T09:04:30.016Z,9.03
2019-04-09T09:05:33.105Z,9.11
2019-04-09T09:06:29.266Z,9.10
2019-04-09T09:07:29.126Z,9.31
2019-04-09T09:08:28.042Z,9.37
2019-04-09T09:09:30.497Z,9.37
2019-04-09T09:10:27.894Z,9.18
2019-04-09T09:11:30.984Z,9.13
2019-04-09T09:12:31.948Z,9.21
2019-04-09T09:13:27.688Z,9.16
2019-04-09T09:14:27.425Z,9.06
2019-04-09T09:15:27.322Z,9.03
2019-04-09T09:16:30.279Z,9.04
2019-04-09T09:17:27.437Z,9.19
2019-04-09T09:18:27.015Z,9.19
2019-04-09T09:19:29.562Z,9.32
2019-04-09T09:20:26.808Z,9.40
2019-04-09T09:21:32.379Z,9.40
2019-04-09T09:22:26.923Z,9.54
2019-04-09T09:23:26.496Z,9.50
2019-04-09T09:24:26.395Z,9.55
2019-04-09T09:25:30.894Z,9.58
2019-04-09T09:26:26.191Z,9.72
2019-04-09T09:27:26.638Z,9.64
2019-04-09T09:28:26.659Z,9.50
2019-04-09T09:29:25.954Z,9.48
2019-04-09T09:30:32.122Z,9.48
2019-04-09T09:31:31.132Z,9.62
2019-04-09T09:32:25.572Z,9.76
2019-04-09T09:33:30.594Z,9.76
2019-04-09T09:34:25.993Z,10.13
2019-04-09T09:35:28.744Z,10.84
2019-04-09T09:36:25.163Z,11.40
2019-04-09T09:37:25.058Z,11.80
2019-04-09T09:38:25.494Z,12.04
2019-04-09T09:39:27.779Z,12.06
2019-04-09T09:40:24.750Z,12.32
2019-04-09T09:41:24.648Z,12.09
2019-04-09T09:42:25.480Z,11.86
2019-04-09T09:43:26.335Z,11.80
2019-04-09T09:44:25.033Z,11.63
2019-04-09T09:45:28.553Z,11.68
2019-04-09T09:46:24.835Z,11.37
2019-04-09T09:47:24.762Z,11.29
2019-04-09T09:48:25.137Z,11.04
2019-04-09T09:49:24.196Z,10.99
2019-04-09T09:50:24.334Z,10.87
2019-04-09T09:51:24.239Z,10.86
2019-04-09T09:52:23.841Z,10.64
2019-04-09T09:53:27.391Z,10.59
2019-04-09T09:54:23.329Z,10.37
2019-04-09T09:55:24.225Z,10.56
2019-04-09T09:56:25.926Z,10.38
2019-04-09T09:57:23.040Z,10.34
2019-04-09T09:58:24.103Z,10.41
2019-04-09T09:59:28.350Z,10.30
2019-04-09T10:00:22.723Z,10.42
2019-04-09T10:01:32.054Z,10.23
2019-04-09T10:02:22.793Z,10.04
2019-04-09T10:03:23.362Z,10.05
2019-04-09T10:04:23.595Z,10.09
2019-04-09T10:05:23.221Z,9.91
2019-04-09T10:06:26.285Z,9.84
2019-04-09T10:07:36.566Z,9.92
2019-04-09T10:08:21.914Z,9.99
2019-04-09T10:09:26.383Z,9.98
2019-04-09T10:10:22.517Z,10.12
2019-04-09T10:11:21.630Z,10.28
2019-04-09T10:12:31.517Z,10.44
2019-04-09T10:13:23.529Z,10.44
2019-04-09T10:14:21.704Z,10.38
2019-04-09T10:15:21.820Z,10.20
2019-04-09T10:16:21.305Z,10.07
2019-04-09T10:17:27.830Z,10.09
2019-04-09T10:18:21.038Z,10.02
2019-04-09T10:19:23.180Z,10.09
2019-04-09T10:20:20.685Z,10.05
2019-04-09T10:21:20.584Z,10.12
2019-04-09T10:22:23.806Z,10.17
2019-04-09T10:23:20.381Z,10.13
2019-04-09T10:24:27.408Z,10.10
2019-04-09T10:25:22.262Z,10.09
2019-04-09T10:26:20.912Z,10.12
2019-04-09T10:27:20.335Z,10.23
2019-04-09T10:28:22.873Z,10.28
2019-04-09T10:29:19.813Z,10.34
2019-04-09T10:30:20.416Z,10.49
2019-04-09T10:31:27.548Z,10.33
2019-04-09T10:32:19.458Z,10.41
2019-04-09T10:33:20.415Z,10.41
2019-04-09T10:34:21.692Z,10.30
2019-04-09T10:35:19.276Z,10.53
2019-04-09T10:36:19.048Z,10.40
2019-04-09T10:37:22.804Z,10.34
2019-04-09T10:38:21.699Z,10.56
2019-04-09T10:39:18.741Z,10.74
2019-04-09T10:40:20.768Z,10.84
2019-04-09T10:41:27.998Z,10.90
2019-04-09T10:42:19.553Z,10.69
2019-04-09T10:43:18.761Z,10.54
2019-04-09T10:44:19.323Z,10.57
2019-04-09T10:45:21.263Z,10.46
2019-04-09T10:46:18.705Z,10.17
2019-04-09T10:47:18.213Z,10.44
2019-04-09T10:48:18.377Z,10.60
2019-04-09T10:49:23.367Z,10.69
2019-04-09T10:50:17.695Z,10.71
2019-04-09T10:51:17.606Z,10.72
2019-04-09T10:52:21.929Z,10.78
2019-04-09T10:53:18.819Z,10.87
2019-04-09T10:54:17.479Z,10.99
2019-04-09T10:55:20.630Z,10.94
2019-04-09T10:56:19.129Z,10.81
2019-04-09T10:57:17.495Z,10.72
2019-04-09T10:58:21.473Z,10.76
2019-04-09T10:59:17.417Z,10.76
2019-04-09T11:00:16.590Z,10.82
2019-04-09T11:01:16.907Z,10.92
2019-04-09T11:02:16.582Z,10.94
2019-04-09T11:03:16.764Z,10.71
2019-04-09T11:04:16.922Z,10.76
2019-04-09T11:05:17.580Z,10.78
2019-04-09T11:06:16.001Z,10.75
2019-04-09T11:07:15.885Z,10.71
2019-04-09T11:08:15.823Z,10.76
2019-04-09T11:09:16.690Z,10.74
2019-04-09T11:10:23.155Z,10.89
2019-04-09T11:11:17.877Z,10.84
2019-04-09T11:12:16.408Z,10.90
2019-04-09T11:13:15.261Z,10.69
2019-04-09T11:14:15.160Z,10.75
2019-04-09T11:15:17.446Z,10.90
2019-04-09T11:16:14.962Z,10.86
2019-04-09T11:17:14.901Z,10.75
2019-04-09T11:18:18.413Z,10.81
2019-04-09T11:19:18.919Z,10.78
2019-04-09T11:20:15.117Z,10.78
2019-04-09T11:21:14.452Z,10.74
2019-04-09T11:22:17.045Z,10.76
2019-04-09T11:23:14.236Z,10.84
2019-04-09T11:24:14.134Z,10.72
2019-04-09T11:25:14.485Z,10.81
2019-04-09T11:26:14.987Z,10.99
2019-04-09T11:27:17.507Z,11.10
2019-04-09T11:28:14.436Z,11.26
2019-04-09T11:29:13.641Z,11.35
2019-04-09T11:30:13.978Z,11.37
2019-04-09T11:31:13.791Z,11.35
2019-04-09T11:32:13.882Z,11.30
2019-04-09T11:33:13.216Z,11.14
2019-04-09T11:34:13.321Z,10.94
2019-04-09T11:35:13.011Z,10.97
2019-04-09T11:36:12.915Z,11.02
2019-04-09T11:37:13.784Z,11.18
2019-04-09T11:38:13.059Z,11.14
2019-04-09T11:39:12.608Z,11.14
2019-04-09T11:40:12.687Z,11.19
2019-04-09T11:41:12.834Z,11.32
2019-04-09T11:42:12.295Z,11.40
2019-04-09T11:43:14.805Z,11.63
2019-04-09T11:44:12.994Z,11.47
2019-04-09T11:45:11.991Z,11.59
2019-04-09T11:46:12.562Z,11.62
2019-04-09T11:47:11.883Z,11.73
2019-04-09T11:48:11.830Z,11.55
2019-04-09T11:49:12.068Z,11.52
2019-04-09T11:50:11.842Z,11.40
2019-04-09T11:51:11.379Z,11.48
2019-04-09T11:52:12.191Z,11.55
2019-04-09T11:53:12.048Z,11.54
2019-04-09T11:54:11.071Z,11.68
2019-04-09T11:55:11.938Z,11.68
2019-04-09T11:56:11.584Z,11.75
2019-04-09T11:57:10.770Z,11.80
2019-04-09T11:58:10.951Z,11.72
2019-04-09T11:59:11.062Z,11.86
2019-04-09T12:00:10.462Z,11.78
2019-04-09T12:01:10.367Z,11.99
2019-04-09T12:02:12.707Z,11.72
2019-04-09T12:03:10.604Z,11.70
2019-04-09T12:04:10.050Z,11.72
2019-04-09T12:05:10.010Z,11.66
2019-04-09T12:06:09.848Z,11.52
2019-04-09T12:07:09.749Z,11.59
2019-04-09T12:08:10.601Z,11.62
2019-04-09T12:09:09.545Z,11.73
2019-04-09T12:10:10.092Z,11.75
2019-04-09T12:11:09.343Z,11.80
2019-04-09T12:12:09.528Z,11.84
2019-04-09T12:13:09.134Z,11.81
2019-04-09T12:14:09.032Z,11.75
2019-04-09T12:15:08.939Z,11.75
2019-04-09T12:16:08.985Z,11.86
2019-04-09T12:17:08.726Z,11.86
2019-04-09T12:18:09.385Z,11.90
2019-04-09T12:19:08.522Z,11.75
2019-04-09T12:20:12.478Z,11.73
2019-04-09T12:21:08.956Z,11.78
2019-04-09T12:22:08.225Z,11.83
2019-04-09T12:23:08.115Z,11.97
2019-04-09T12:24:08.984Z,11.94
2019-04-09T12:25:07.912Z,11.87
2019-04-09T12:26:08.458Z,12.00
2019-04-09T12:27:07.723Z,12.18
2019-04-09T12:28:08.736Z,12.18
2019-04-09T12:29:15.411Z,11.78
2019-04-09T12:30:07.406Z,11.68
2019-04-09T12:31:08.054Z,11.83
2019-04-09T12:32:17.203Z,11.84
2019-04-09T12:33:07.262Z,11.97
2019-04-09T12:34:06.999Z,11.84
2019-04-09T12:35:08.278Z,11.83
2019-04-09T12:36:06.795Z,12.02
2019-04-09T12:37:07.008Z,12.07
2019-04-09T12:38:06.593Z,11.86
2019-04-09T12:39:07.510Z,11.78
2019-04-09T12:40:06.573Z,11.73
2019-04-09T12:41:06.289Z,11.66
2019-04-09T12:42:06.187Z,11.69
2019-04-09T12:43:07.039Z,11.78
2019-04-09T12:44:05.982Z,11.83
2019-04-09T12:45:06.645Z,11.72
2019-04-09T12:46:05.930Z,11.75
2019-04-09T12:47:06.044Z,11.78
2019-04-09T12:48:06.440Z,11.83
2019-04-09T12:49:06.238Z,12.03
2019-04-09T12:50:05.594Z,12.07
2019-04-09T12:51:05.270Z,12.15
2019-04-09T12:52:05.169Z,12.17
2019-04-09T12:53:05.757Z,12.02
2019-04-09T12:54:04.964Z,11.99
2019-04-09T12:55:04.863Z,12.09
2019-04-09T12:56:04.822Z,12.21
2019-04-09T12:57:05.814Z,12.21
2019-04-09T12:58:04.559Z,12.28
2019-04-09T12:59:05.640Z,12.20
2019-04-09T13:00:04.452Z,12.24
2019-04-09T13:01:04.660Z,12.25
2019-04-09T13:02:04.908Z,12.21
2019-04-09T13:03:04.861Z,12.04
2019-04-09T13:04:03.948Z,12.06
2019-04-09T13:05:03.848Z,12.07
2019-04-09T13:06:03.747Z,12.20
2019-04-09T13:07:04.315Z,12.36
2019-04-09T13:08:03.594Z,12.46
2019-04-09T13:09:04.298Z,12.32
2019-04-09T13:10:03.341Z,12.37